TimeCST,TemperatureF,Dew PointF,Humidity,Sea Level PressureIn,VisibilityMPH,Wind Direction,Wind SpeedMPH,Gust SpeedMPH,PrecipitationIn,Events,Conditions,WindDirDegrees,DateUTC
12:15 AM,45.1,39.2,80,30.30,10.0,Calm,Calm,-,N/A,,Clear,0,2013-02-03 06:15:00
12:35 AM,46.4,38.8,75,30.30,10.0,Calm,Calm,-,N/A,,Clear,0,2013-02-03 06:35:00
12:55 AM,42.8,39.7,89,30.30,10.0,Calm,Calm,-,N/A,,Clear,0,2013-02-03 06:55:00
1:15 AM,42.1,39.2,90,30.30,10.0,Calm,Calm,-,N/A,,Clear,0,2013-02-03 07:15:00
1:35 AM,43.5,39.4,85,30.30,10.0,Calm,Calm,-,N/A,,Clear,0,2013-02-03 07:35:00
1:55 AM,43.7,37.9,80,30.30,10.0,Calm,Calm,-,N/A,,Clear,0,2013-02-03 07:55:00
2:15 AM,43.9,37.4,78,30.29,10.0,Calm,Calm,-,N/A,,Clear,0,2013-02-03 08:15:00
2:35 AM,40.3,38.7,94,30.29,10.0,Calm,Calm,-,N/A,,Clear,0,2013-02-03 08:35:00
2:55 AM,39.2,39.2,100,30.29,10.0,Calm,Calm,-,N/A,,Clear,0,2013-02-03 08:55:00
3:15 AM,38.7,38.7,100,30.29,10.0,Calm,Calm,-,N/A,,Clear,0,2013-02-03 09:15:00
3:35 AM,38.5,38.1,99,30.29,10.0,Calm,Calm,-,N/A,,Clear,0,2013-02-03 09:35:00
3:55 AM,37.2,37.2,100,30.29,10.0,Calm,Calm,-,N/A,,Clear,0,2013-02-03 09:55:00
4:15 AM,36.9,36.9,100,30.29,10.0,Calm,Calm,-,N/A,,Clear,0,2013-02-03 10:15:00
4:35 AM,36.0,36.0,100,30.29,10.0,Calm,Calm,-,N/A,,Clear,0,2013-02-03 10:35:00
4:55 AM,35.6,35.6,100,30.29,10.0,Calm,Calm,-,N/A,,Clear,0,2013-02-03 10:55:00
5:15 AM,34.7,34.7,100,30.30,10.0,Calm,Calm,-,N/A,,Clear,0,2013-02-03 11:15:00
5:35 AM,34.5,34.5,100,30.30,10.0,Calm,Calm,-,N/A,,Clear,0,2013-02-03 11:35:00
5:55 AM,34.0,34.0,100,30.30,10.0,Calm,Calm,-,N/A,,Clear,0,2013-02-03 11:55:00
6:15 AM,34.3,34.3,100,30.30,10.0,Calm,Calm,-,N/A,,Clear,0,2013-02-03 12:15:00
6:35 AM,34.5,34.5,100,30.30,10.0,Calm,Calm,-,N/A,,Clear,0,2013-02-03 12:35:00
6:55 AM,33.8,33.8,100,30.30,10.0,Calm,Calm,-,N/A,,Clear,0,2013-02-03 12:55:00
7:15 AM,33.8,33.8,100,30.30,10.0,Calm,Calm,-,N/A,,Clear,0,2013-02-03 13:15:00
7:35 AM,34.7,34.7,100,30.31,10.0,Calm,Calm,-,N/A,,Clear,0,2013-02-03 13:35:00
7:55 AM,38.1,38.1,100,30.31,10.0,Calm,Calm,-,N/A,,Clear,0,2013-02-03 13:55:00
8:15 AM,46.0,36.1,68,30.31,10.0,Calm,Calm,-,N/A,,Clear,0,2013-02-03 14:15:00
8:35 AM,50.2,35.2,57,30.32,10.0,Calm,Calm,-,N/A,,Clear,0,2013-02-03 14:35:00
8:55 AM,53.1,35.2,51,30.32,10.0,NW,3.5,-,N/A,,Clear,310,2013-02-03 14:55:00
9:15 AM,55.6,32.9,42,30.32,10.0,NW,6.9,-,N/A,,Clear,310,2013-02-03 15:15:00
9:35 AM,56.5,32.5,40,30.32,10.0,NW,5.8,-,N/A,,Clear,310,2013-02-03 15:35:00
9:55 AM,58.3,32.7,38,30.32,10.0,NNW,8.1,-,N/A,,Clear,330,2013-02-03 15:55:00
10:15 AM,59.9,31.6,34,30.32,10.0,NNW,6.9,-,N/A,,Clear,330,2013-02-03 16:15:00
10:35 AM,61.7,29.7,30,30.32,10.0,NNW,9.2,-,N/A,,Clear,330,2013-02-03 16:35:00
10:55 AM,62.1,27.9,27,30.32,10.0,NW,9.2,-,N/A,,Clear,320,2013-02-03 16:55:00
11:15 AM,64.0,27.9,26,30.32,10.0,NNW,8.1,16.1,N/A,,Clear,330,2013-02-03 17:15:00
11:35 AM,64.2,26.4,24,30.31,10.0,North,8.1,-,N/A,,Clear,10,2013-02-03 17:35:00
11:55 AM,65.1,24.6,22,30.31,10.0,NW,10.4,-,N/A,,Clear,320,2013-02-03 17:55:00
12:15 PM,65.3,23.4,20,30.29,10.0,NW,11.5,18.4,N/A,,Clear,320,2013-02-03 18:15:00
12:55 PM,66.4,24.1,20,30.26,10.0,NW,10.4,-,N/A,,Clear,320,2013-02-03 18:55:00
1:15 PM,67.1,23.7,19,30.26,10.0,NNW,8.1,-,N/A,,Clear,330,2013-02-03 19:15:00
1:35 PM,67.1,21.0,17,30.25,10.0,North,9.2,-,N/A,,Clear,350,2013-02-03 19:35:00
1:55 PM,67.1,21.0,17,30.24,10.0,NW,3.5,-,N/A,,Clear,320,2013-02-03 19:55:00
2:15 PM,67.5,21.0,17,30.23,10.0,NNW,6.9,-,N/A,,Clear,330,2013-02-03 20:15:00
2:35 PM,67.5,19.6,16,30.21,10.0,Calm,Calm,-,N/A,,Clear,0,2013-02-03 20:35:00
2:55 PM,67.6,20.1,16,30.21,10.0,North,5.8,-,N/A,,Clear,10,2013-02-03 20:55:00
3:15 PM,68.2,20.3,16,30.21,10.0,NNW,9.2,-,N/A,,Clear,340,2013-02-03 21:15:00
3:35 PM,68.0,20.1,16,30.20,10.0,NW,4.6,-,N/A,,Clear,320,2013-02-03 21:35:00
3:55 PM,67.6,18.9,16,30.20,10.0,Calm,Calm,-,N/A,,Clear,0,2013-02-03 21:55:00
4:15 PM,67.1,19.0,16,30.20,10.0,North,5.8,-,N/A,,Clear,350,2013-02-03 22:15:00
4:55 PM,66.2,18.1,16,30.19,10.0,Calm,Calm,-,N/A,,Clear,0,2013-02-03 22:55:00
5:15 PM,61.7,30.0,30,30.19,10.0,Calm,Calm,-,N/A,,Clear,0,2013-02-03 23:15:00
5:55 PM,54.1,33.3,45,30.19,10.0,Calm,Calm,-,N/A,,Clear,0,2013-02-03 23:55:00
6:15 PM,52.2,33.1,48,30.18,10.0,Calm,Calm,-,N/A,,Clear,0,2013-02-04 00:15:00
6:35 PM,49.6,33.3,53,30.19,10.0,Calm,Calm,-,N/A,,Clear,0,2013-02-04 00:35:00
6:55 PM,48.2,33.8,58,30.19,10.0,Calm,Calm,-,N/A,,Clear,0,2013-02-04 00:55:00
7:15 PM,46.9,34.0,61,30.19,10.0,Calm,Calm,-,N/A,,Clear,0,2013-02-04 01:15:00
7:35 PM,45.3,34.3,65,30.19,10.0,Calm,Calm,-,N/A,,Clear,0,2013-02-04 01:35:00
7:55 PM,44.6,34.7,68,30.18,10.0,Calm,Calm,-,N/A,,Clear,0,2013-02-04 01:55:00
8:15 PM,43.3,34.0,70,30.19,10.0,Calm,Calm,-,N/A,,Clear,0,2013-02-04 02:15:00
8:35 PM,42.8,34.2,72,30.18,10.0,Calm,Calm,-,N/A,,Clear,0,2013-02-04 02:35:00
8:55 PM,43.0,33.3,69,30.18,10.0,Calm,Calm,-,N/A,,Clear,0,2013-02-04 02:55:00
9:15 PM,42.8,34.5,73,30.18,10.0,Calm,Calm,-,N/A,,Clear,0,2013-02-04 03:15:00
9:35 PM,41.2,34.2,76,30.17,10.0,Calm,Calm,-,N/A,,Clear,0,2013-02-04 03:35:00
9:55 PM,41.0,34.7,78,30.17,10.0,Calm,Calm,-,N/A,,Clear,0,2013-02-04 03:55:00
10:15 PM,41.0,35.1,79,30.17,10.0,Calm,Calm,-,N/A,,Clear,0,2013-02-04 04:15:00
10:35 PM,41.5,35.4,79,30.16,10.0,Calm,Calm,-,N/A,,Clear,0,2013-02-04 04:35:00
10:55 PM,41.9,35.4,78,30.16,10.0,Calm,Calm,-,N/A,,Clear,0,2013-02-04 04:55:00
11:15 PM,46.6,33.8,61,30.15,10.0,ESE,3.5,-,N/A,,Clear,110,2013-02-04 05:15:00
11:35 PM,43.7,34.2,69,30.14,10.0,Calm,Calm,-,N/A,,Clear,0,2013-02-04 05:35:00
11:55 PM,42.4,35.2,76,30.13,10.0,Calm,Calm,-,N/A,,Clear,0,2013-02-04 05:55:00